createdAt,value
2022-10-22T00:00:58.540Z,13.60
2022-10-22T00:03:26.398Z,13.60
2022-10-22T00:05:54.201Z,13.60
2022-10-22T00:08:23.912Z,13.60
2022-10-22T00:10:52.720Z,13.60
2022-10-22T00:13:20.898Z,13.60
2022-10-22T00:15:48.691Z,13.60
2022-10-22T00:18:16.779Z,13.60
2022-10-22T00:20:44.507Z,13.60
2022-10-22T00:23:12.610Z,13.60
2022-10-22T00:25:41.704Z,13.60
2022-10-22T00:28:11.390Z,13.60
2022-10-22T00:30:39.205Z,13.60
2022-10-22T00:33:07.010Z,13.60
2022-10-22T00:35:34.838Z,13.60
2022-10-22T00:38:02.989Z,13.60
2022-10-22T00:40:31.528Z,13.60
2022-10-22T00:43:00.663Z,13.60
2022-10-22T00:45:29.462Z,13.60
2022-10-22T00:48:00.977Z,13.60
2022-10-22T00:50:33.934Z,13.60
2022-10-22T00:53:03.286Z,13.60
2022-10-22T00:55:32.279Z,13.60
2022-10-22T00:58:03.104Z,13.60
2022-10-22T01:00:31.891Z,13.70
2022-10-22T01:03:00.959Z,13.70
2022-10-22T01:05:31.632Z,13.70
2022-10-22T01:07:59.557Z,13.70
2022-10-22T01:10:47.977Z,13.70
2022-10-22T01:13:32.747Z,13.70
2022-10-22T01:16:07.649Z,13.70
2022-10-22T01:18:45.306Z,13.70
2022-10-22T01:21:21.518Z,13.70
2022-10-22T01:24:10.127Z,13.70
2022-10-22T01:26:51.726Z,13.60
2022-10-22T01:29:26.873Z,13.60
2022-10-22T01:31:57.659Z,13.70
2022-10-22T01:34:26.832Z,13.60
2022-10-22T01:36:56.854Z,13.60
2022-10-22T01:39:26.319Z,13.60
2022-10-22T01:41:56.228Z,13.60
2022-10-22T01:44:28.335Z,13.60
2022-10-22T01:47:15.318Z,13.60
2022-10-22T01:50:01.093Z,13.60
2022-10-22T01:52:42.330Z,13.60
2022-10-22T01:55:18.030Z,13.60
2022-10-22T01:57:54.233Z,13.60
2022-10-22T02:00:23.687Z,13.60
2022-10-22T02:02:59.478Z,13.60
2022-10-22T02:05:33.774Z,13.60
2022-10-22T02:08:06.547Z,13.60
2022-10-22T02:10:37.978Z,13.60
2022-10-22T02:13:09.337Z,13.50
2022-10-22T02:15:40.867Z,13.50
2022-10-22T02:18:10.743Z,13.50
2022-10-22T02:20:41.494Z,13.50
2022-10-22T02:23:10.694Z,13.50
2022-10-22T02:25:42.051Z,13.50
2022-10-22T02:28:17.776Z,13.50
2022-10-22T02:30:52.160Z,13.50
2022-10-22T02:33:23.107Z,13.50
2022-10-22T02:35:53.078Z,13.50
2022-10-22T02:38:21.304Z,13.50
2022-10-22T02:40:49.251Z,13.50
2022-10-22T02:43:18.738Z,13.50
2022-10-22T02:45:48.240Z,13.50
2022-10-22T02:48:16.024Z,13.50
2022-10-22T02:50:44.162Z,13.50
2022-10-22T02:53:11.890Z,13.50
2022-10-22T02:55:39.639Z,13.60
2022-10-22T02:58:07.435Z,13.60
2022-10-22T03:00:35.221Z,13.60
2022-10-22T03:03:04.479Z,13.60
2022-10-22T03:05:32.247Z,13.50
2022-10-22T03:08:00.091Z,13.50
2022-10-22T03:10:27.854Z,13.50
2022-10-22T03:12:56.053Z,13.50
2022-10-22T03:15:23.932Z,13.50
2022-10-22T03:17:51.723Z,13.60
2022-10-22T03:20:20.850Z,13.60
2022-10-22T03:22:48.819Z,13.50
2022-10-22T03:25:22.763Z,13.50
2022-10-22T03:27:53.382Z,13.50
2022-10-22T03:30:21.414Z,13.50
2022-10-22T03:32:49.405Z,13.40
2022-10-22T03:35:17.243Z,13.50
2022-10-22T03:37:46.454Z,13.40
2022-10-22T03:40:15.130Z,13.30
2022-10-22T03:42:43.625Z,13.30
2022-10-22T03:45:12.262Z,13.30
2022-10-22T03:47:40.663Z,13.10
2022-10-22T03:50:09.862Z,13.10
2022-10-22T03:52:38.838Z,13.00
2022-10-22T03:55:09.678Z,13.00
2022-10-22T03:57:37.655Z,13.00
2022-10-22T04:00:07.152Z,13.00
2022-10-22T04:02:34.971Z,13.00
2022-10-22T04:05:02.788Z,13.00
2022-10-22T04:07:30.621Z,12.90
2022-10-22T04:09:58.412Z,12.90
2022-10-22T04:12:27.587Z,12.90
2022-10-22T04:14:55.342Z,12.90
2022-10-22T04:17:23.499Z,12.90
2022-10-22T04:19:51.338Z,12.80
2022-10-22T04:22:19.098Z,12.80
2022-10-22T04:24:46.898Z,12.80
2022-10-22T04:27:14.684Z,12.80
2022-10-22T04:29:44.086Z,12.80
2022-10-22T04:32:11.880Z,12.80
2022-10-22T04:34:39.668Z,12.80
2022-10-22T04:37:07.423Z,12.80
2022-10-22T04:39:35.384Z,12.80
2022-10-22T04:42:03.773Z,12.70
2022-10-22T04:44:31.544Z,12.70
2022-10-22T04:47:00.716Z,12.70
2022-10-22T04:49:28.643Z,12.70
2022-10-22T04:51:56.479Z,12.60
2022-10-22T04:54:25.796Z,12.60
2022-10-22T04:56:56.890Z,12.60
2022-10-22T04:59:24.658Z,12.60
2022-10-22T05:01:52.440Z,12.60
2022-10-22T05:04:21.563Z,12.60
2022-10-22T05:06:49.395Z,12.60
2022-10-22T05:09:19.223Z,12.60
2022-10-22T05:11:49.017Z,12.60
2022-10-22T05:14:18.297Z,12.60
2022-10-22T05:16:48.255Z,12.50
2022-10-22T05:19:20.588Z,12.50
2022-10-22T05:21:50.587Z,12.50
2022-10-22T05:24:18.507Z,12.50
2022-10-22T05:26:46.385Z,12.50
2022-10-22T05:29:15.153Z,12.50
2022-10-22T05:31:43.001Z,12.40
2022-10-22T05:34:10.824Z,12.40
2022-10-22T05:36:38.759Z,12.40
2022-10-22T05:39:07.996Z,12.30
2022-10-22T05:41:36.676Z,12.20
2022-10-22T05:44:05.853Z,12.20
2022-10-22T05:46:36.738Z,12.20
2022-10-22T05:49:07.123Z,12.30
2022-10-22T05:51:37.655Z,12.30
2022-10-22T05:54:08.668Z,12.30
2022-10-22T05:56:37.470Z,12.30
2022-10-22T05:59:05.582Z,12.30
2022-10-22T06:01:35.836Z,12.30
2022-10-22T06:04:06.560Z,12.30
2022-10-22T06:06:36.025Z,12.30
2022-10-22T06:09:11.658Z,12.30
2022-10-22T06:11:39.635Z,12.20
2022-10-22T06:14:07.432Z,12.30
2022-10-22T06:16:35.222Z,12.30
2022-10-22T06:19:03.687Z,12.30
2022-10-22T06:21:32.291Z,12.30
2022-10-22T06:24:01.118Z,12.30
2022-10-22T06:26:30.652Z,12.30
2022-10-22T06:28:58.852Z,12.30
2022-10-22T06:31:28.218Z,12.30
2022-10-22T06:33:57.004Z,12.40
2022-10-22T06:36:25.587Z,12.30
2022-10-22T06:38:54.249Z,12.40
2022-10-22T06:41:25.575Z,12.40
2022-10-22T06:43:58.856Z,12.40
2022-10-22T06:46:27.218Z,12.50
2022-10-22T06:48:58.198Z,12.60
2022-10-22T06:51:27.669Z,12.60
2022-10-22T06:53:56.439Z,12.60
2022-10-22T06:56:26.795Z,12.60
2022-10-22T06:58:58.405Z,12.60
2022-10-22T07:01:28.298Z,12.60
2022-10-22T07:03:56.147Z,12.60
2022-10-22T07:06:25.874Z,12.60
2022-10-22T07:08:54.751Z,12.60
2022-10-22T07:11:25.015Z,12.60
2022-10-22T07:13:55.059Z,12.70
2022-10-22T07:16:29.534Z,12.70
2022-10-22T07:19:00.008Z,12.70
2022-10-22T07:21:27.969Z,12.70
2022-10-22T07:23:56.474Z,12.70
2022-10-22T07:26:25.298Z,12.70
2022-10-22T07:28:53.251Z,12.80
2022-10-22T07:31:21.183Z,12.80
2022-10-22T07:33:50.360Z,12.80
2022-10-22T07:36:18.779Z,12.80
2022-10-22T07:38:48.027Z,12.90
2022-10-22T07:41:16.777Z,12.90
2022-10-22T07:43:44.643Z,13.00
2022-10-22T07:46:12.580Z,13.10
2022-10-22T07:48:40.668Z,13.10
2022-10-22T07:51:10.122Z,13.20
2022-10-22T07:53:38.277Z,13.30
2022-10-22T07:56:07.871Z,13.30
2022-10-22T07:58:36.174Z,13.40
2022-10-22T08:01:05.701Z,13.50
2022-10-22T08:03:34.144Z,13.50
2022-10-22T08:06:02.361Z,13.50
2022-10-22T08:08:31.754Z,13.70
2022-10-22T08:11:01.960Z,13.70
2022-10-22T08:13:31.382Z,13.80
2022-10-22T08:15:59.738Z,13.70
2022-10-22T08:18:27.765Z,13.70
2022-10-22T08:20:55.630Z,13.80
2022-10-22T08:23:26.092Z,13.80
2022-10-22T08:25:57.572Z,13.90
2022-10-22T08:28:25.963Z,13.80
2022-10-22T08:30:53.759Z,13.70
2022-10-22T08:33:21.745Z,13.70
2022-10-22T08:35:50.526Z,13.80
2022-10-22T08:38:19.277Z,13.80
2022-10-22T08:40:50.847Z,13.90
2022-10-22T08:43:55.362Z,13.90
2022-10-22T08:46:39.952Z,14.00
2022-10-22T08:49:16.296Z,13.90
2022-10-22T08:51:44.384Z,14.00
2022-10-22T08:54:23.510Z,14.10
2022-10-22T08:57:00.672Z,14.20
2022-10-22T08:59:36.043Z,14.20
2022-10-22T09:02:06.937Z,14.30
2022-10-22T09:04:41.500Z,14.40
2022-10-22T09:07:11.385Z,14.30
2022-10-22T09:09:46.651Z,14.30
2022-10-22T09:12:20.196Z,14.40
2022-10-22T09:14:49.989Z,14.40
2022-10-22T09:17:24.854Z,14.50
2022-10-22T09:20:03.362Z,14.50
2022-10-22T09:22:39.089Z,14.60
2022-10-22T09:25:19.954Z,14.60
2022-10-22T09:27:49.101Z,14.70
2022-10-22T09:30:21.876Z,14.80
2022-10-22T09:32:52.989Z,14.90
2022-10-22T09:35:25.217Z,14.90
2022-10-22T09:37:55.593Z,15.00
2022-10-22T09:40:24.606Z,15.10
2022-10-22T09:42:52.330Z,15.00
2022-10-22T09:45:25.208Z,15.00
2022-10-22T09:48:10.553Z,15.00
2022-10-22T09:50:43.827Z,15.20
2022-10-22T09:53:18.818Z,15.30
2022-10-22T09:55:51.574Z,15.30
2022-10-22T09:58:19.781Z,15.40
2022-10-22T10:00:52.559Z,15.30
2022-10-22T10:03:22.719Z,15.20
2022-10-22T10:05:54.379Z,15.30
2022-10-22T10:08:23.290Z,15.30
2022-10-22T10:10:54.405Z,15.40
2022-10-22T10:13:42.016Z,15.50
2022-10-22T10:16:22.886Z,15.60
2022-10-22T10:19:10.903Z,15.80
2022-10-22T10:21:48.639Z,15.80
2022-10-22T10:24:25.275Z,15.80
2022-10-22T10:26:59.423Z,15.80
2022-10-22T10:29:42.589Z,15.90
2022-10-22T10:32:33.478Z,16.00
2022-10-22T10:35:16.007Z,16.10
2022-10-22T10:37:51.157Z,16.20
2022-10-22T10:40:33.959Z,16.20
2022-10-22T10:43:08.323Z,16.30
2022-10-22T10:45:46.299Z,16.20
2022-10-22T10:48:29.928Z,16.20
2022-10-22T10:51:05.308Z,16.20
2022-10-22T10:53:54.133Z,16.20
2022-10-22T10:56:36.790Z,16.20
2022-10-22T10:59:17.140Z,16.10
2022-10-22T11:02:01.502Z,16.20
2022-10-22T11:04:57.478Z,16.00
2022-10-22T11:07:34.789Z,16.00
2022-10-22T11:10:10.290Z,16.00
2022-10-22T11:12:43.429Z,16.00
2022-10-22T11:15:24.860Z,16.00
2022-10-22T11:17:56.179Z,16.10
2022-10-22T11:20:29.743Z,16.20
2022-10-22T11:23:21.452Z,16.30
2022-10-22T11:25:50.905Z,16.30
2022-10-22T11:28:23.600Z,16.40
2022-10-22T11:31:02.518Z,16.50
2022-10-22T11:33:40.249Z,16.60
2022-10-22T11:36:11.072Z,16.70
2022-10-22T11:38:38.975Z,16.80
2022-10-22T11:41:11.710Z,16.90
2022-10-22T11:43:58.824Z,17.00
2022-10-22T11:46:30.674Z,17.30
2022-10-22T11:49:24.775Z,17.40
2022-10-22T11:52:22.601Z,17.50
2022-10-22T11:54:54.207Z,17.60
2022-10-22T11:57:26.954Z,17.70
2022-10-22T11:59:58.514Z,17.70
2022-10-22T12:02:39.364Z,17.60
2022-10-22T12:05:35.839Z,17.60
2022-10-22T12:08:16.884Z,17.60
2022-10-22T12:11:04.235Z,17.70
2022-10-22T12:13:34.418Z,17.90
2022-10-22T12:16:05.084Z,17.90
2022-10-22T12:18:41.410Z,17.90
2022-10-22T12:21:12.773Z,17.70
2022-10-22T12:23:42.516Z,17.50
2022-10-22T12:26:24.607Z,17.40
2022-10-22T12:28:52.851Z,17.40
2022-10-22T12:31:20.656Z,17.60
2022-10-22T12:33:49.240Z,17.80
2022-10-22T12:36:18.789Z,17.90
2022-10-22T12:38:48.775Z,17.90
2022-10-22T12:41:16.620Z,18.00
2022-10-22T12:43:45.393Z,18.00
2022-10-22T12:46:16.171Z,18.00
2022-10-22T12:48:46.296Z,18.20
2022-10-22T12:51:18.281Z,18.20
2022-10-22T12:53:50.244Z,18.20
2022-10-22T12:56:23.787Z,18.20
2022-10-22T12:58:56.489Z,18.10
2022-10-22T13:01:28.361Z,18.00
2022-10-22T13:04:08.318Z,17.90
2022-10-22T13:06:37.136Z,17.80
2022-10-22T13:09:20.420Z,17.80
2022-10-22T13:11:52.857Z,17.80
2022-10-22T13:14:27.424Z,17.70
2022-10-22T13:17:06.277Z,17.60
2022-10-22T13:19:39.679Z,17.70
2022-10-22T13:22:29.845Z,17.60
2022-10-22T13:25:00.772Z,17.70
2022-10-22T13:27:29.313Z,17.70
2022-10-22T13:29:58.055Z,17.70
2022-10-22T13:32:31.955Z,17.80
2022-10-22T13:35:00.892Z,17.70
2022-10-22T13:37:31.669Z,17.70
2022-10-22T13:40:00.863Z,17.60
2022-10-22T13:42:28.630Z,17.60
2022-10-22T13:44:56.371Z,17.50
2022-10-22T13:47:27.399Z,17.50
2022-10-22T13:49:58.225Z,17.50
2022-10-22T13:52:35.182Z,17.60
2022-10-22T13:55:15.553Z,17.70
2022-10-22T13:57:43.470Z,17.60
2022-10-22T14:00:14.571Z,17.50
2022-10-22T14:02:43.030Z,17.40
2022-10-22T14:05:11.642Z,17.40
2022-10-22T14:07:40.870Z,17.40
2022-10-22T14:10:17.527Z,17.40
2022-10-22T14:12:49.274Z,17.30
2022-10-22T14:15:21.121Z,17.20
2022-10-22T14:17:51.416Z,17.20
2022-10-22T14:20:22.190Z,17.20
2022-10-22T14:22:51.569Z,17.30
2022-10-22T14:25:23.277Z,17.30
2022-10-22T14:27:51.760Z,17.40
2022-10-22T14:30:21.652Z,17.30
2022-10-22T14:32:49.795Z,17.40
2022-10-22T14:35:19.883Z,17.40
2022-10-22T14:37:47.666Z,17.40
2022-10-22T14:40:17.815Z,17.40
2022-10-22T14:42:48.764Z,17.60
2022-10-22T14:45:21.914Z,18.20
2022-10-22T14:47:50.302Z,18.00
2022-10-22T14:50:19.024Z,17.50
2022-10-22T14:52:46.838Z,17.30
2022-10-22T14:55:17.034Z,17.00
2022-10-22T14:57:46.840Z,16.90
2022-10-22T15:00:17.620Z,17.10
2022-10-22T15:02:46.089Z,16.90
2022-10-22T15:05:14.386Z,16.90
2022-10-22T15:07:42.792Z,16.80
2022-10-22T15:10:11.379Z,16.90
2022-10-22T15:12:39.219Z,17.00
2022-10-22T15:15:09.450Z,17.00
2022-10-22T15:17:37.212Z,16.90
2022-10-22T15:20:06.052Z,16.90
2022-10-22T15:22:35.916Z,16.90
2022-10-22T15:25:06.119Z,16.70
2022-10-22T15:27:34.154Z,16.60
2022-10-22T15:32:33.760Z,16.40
2022-10-22T15:35:02.119Z,16.30
2022-10-22T15:37:30.750Z,16.20
2022-10-22T15:39:58.636Z,15.90
2022-10-22T15:42:26.417Z,15.90
2022-10-22T15:44:59.199Z,15.70
2022-10-22T15:47:28.485Z,15.60
2022-10-22T15:49:57.683Z,15.50
2022-10-22T15:52:25.487Z,15.40
2022-10-22T15:54:53.315Z,15.30
2022-10-22T15:57:21.130Z,15.30
2022-10-22T15:59:49.997Z,15.30
2022-10-22T16:02:18.190Z,15.20
2022-10-22T16:04:45.980Z,15.10
2022-10-22T16:07:15.115Z,15.00
2022-10-22T16:09:42.844Z,14.90
2022-10-22T16:12:12.180Z,14.90
2022-10-22T16:14:42.272Z,14.90
2022-10-22T16:17:10.038Z,14.70
2022-10-22T16:19:37.908Z,14.70
2022-10-22T16:22:05.975Z,14.50
2022-10-22T16:24:39.798Z,14.50
2022-10-22T16:27:07.818Z,14.30
2022-10-22T16:29:37.755Z,14.20
2022-10-22T16:32:05.851Z,14.10
2022-10-22T16:34:34.191Z,14.00
2022-10-22T16:37:02.502Z,13.80
2022-10-22T16:39:30.326Z,13.70
2022-10-22T16:41:59.449Z,13.60
2022-10-22T16:44:27.347Z,13.50
2022-10-22T16:46:55.071Z,13.50
2022-10-22T16:49:23.020Z,13.50
2022-10-22T16:51:50.799Z,13.50
2022-10-22T16:54:18.554Z,13.50
2022-10-22T16:56:46.334Z,13.40
2022-10-22T16:59:15.526Z,13.30
2022-10-22T17:01:43.472Z,13.20
2022-10-22T17:04:11.749Z,13.20
2022-10-22T17:06:39.531Z,13.20
2022-10-22T17:09:07.453Z,13.10
2022-10-22T17:11:37.076Z,13.00
2022-10-22T17:14:07.288Z,12.90
2022-10-22T17:16:36.728Z,12.90
2022-10-22T17:19:05.468Z,12.80
2022-10-22T17:21:33.797Z,12.80
2022-10-22T17:24:01.588Z,12.80
2022-10-22T17:26:30.338Z,12.70
2022-10-22T17:28:58.644Z,12.60
2022-10-22T17:31:28.060Z,12.60
2022-10-22T17:33:59.710Z,12.60
2022-10-22T17:36:31.804Z,12.50
2022-10-22T17:39:05.119Z,12.50
2022-10-22T17:41:35.668Z,12.40
2022-10-22T17:44:04.939Z,12.40
2022-10-22T17:46:33.719Z,12.40
2022-10-22T17:49:04.902Z,12.30
2022-10-22T17:51:33.083Z,12.30
2022-10-22T17:54:02.474Z,12.30
2022-10-22T17:56:32.775Z,12.20
2022-10-22T17:59:00.598Z,12.20
2022-10-22T18:01:32.848Z,12.10
2022-10-22T18:04:05.085Z,12.10
2022-10-22T18:06:33.803Z,12.10
2022-10-22T18:09:05.247Z,12.00
2022-10-22T18:11:34.310Z,12.00
2022-10-22T18:14:03.033Z,12.00
2022-10-22T18:16:30.956Z,12.00
2022-10-22T18:18:59.004Z,12.10
2022-10-22T18:21:30.430Z,12.00
2022-10-22T18:23:59.874Z,11.90
2022-10-22T18:26:27.803Z,11.90
2022-10-22T18:28:55.947Z,11.90
2022-10-22T18:31:25.391Z,11.90
2022-10-22T18:36:28.762Z,11.80
2022-10-22T18:38:58.853Z,11.80
2022-10-22T18:41:27.364Z,11.90
2022-10-22T18:43:56.422Z,11.90
2022-10-22T18:46:24.840Z,11.90
2022-10-22T18:48:54.117Z,11.90
2022-10-22T18:51:22.147Z,11.80
2022-10-22T18:54:05.376Z,11.70
2022-10-22T18:56:40.840Z,11.70
2022-10-22T18:59:14.150Z,11.70
2022-10-22T19:01:42.107Z,11.60
2022-10-22T19:04:11.140Z,11.60
2022-10-22T19:06:41.775Z,11.60
2022-10-22T19:09:15.708Z,11.50
2022-10-22T19:11:44.421Z,11.50
2022-10-22T19:14:13.494Z,11.60
2022-10-22T19:16:41.458Z,11.50
2022-10-22T19:19:09.556Z,11.50
2022-10-22T19:21:38.614Z,11.60
2022-10-22T19:24:07.163Z,11.50
2022-10-22T19:26:36.434Z,11.40
2022-10-22T19:29:04.639Z,11.40
2022-10-22T19:31:32.739Z,11.40
2022-10-22T19:34:01.930Z,11.50
2022-10-22T19:36:30.902Z,11.50
2022-10-22T19:38:59.427Z,11.50
2022-10-22T19:41:28.814Z,11.50
2022-10-22T19:43:59.143Z,11.50
2022-10-22T19:46:28.870Z,11.50
2022-10-22T19:48:57.289Z,11.40
2022-10-22T19:51:27.175Z,11.40
2022-10-22T19:53:59.319Z,11.30
2022-10-22T19:56:27.407Z,11.30
2022-10-22T19:58:55.218Z,11.30
2022-10-22T20:01:24.844Z,11.30
2022-10-22T20:03:53.171Z,11.30
2022-10-22T20:06:21.712Z,11.20
2022-10-22T20:08:53.727Z,11.10
2022-10-22T20:11:26.170Z,11.10
2022-10-22T20:13:54.563Z,11.20
2022-10-22T20:16:25.935Z,11.20
2022-10-22T20:18:54.044Z,11.10
2022-10-22T20:21:22.605Z,11.20
2022-10-22T20:23:54.023Z,11.10
2022-10-22T20:26:23.778Z,11.20
2022-10-22T20:28:51.675Z,11.20
2022-10-22T20:31:21.054Z,11.20
2022-10-22T20:33:51.399Z,11.20
2022-10-22T20:36:21.583Z,11.20
2022-10-22T20:38:49.840Z,11.20
2022-10-22T20:41:20.196Z,11.20
2022-10-22T20:43:49.111Z,11.30
2022-10-22T20:46:19.701Z,11.30
2022-10-22T20:48:47.826Z,11.20
2022-10-22T20:51:16.908Z,11.20
2022-10-22T20:53:45.023Z,11.20
2022-10-22T20:56:13.531Z,11.30
2022-10-22T20:58:47.840Z,11.30
2022-10-22T21:01:21.745Z,11.20
2022-10-22T21:03:50.088Z,11.20
2022-10-22T21:06:20.817Z,11.20
2022-10-22T21:08:48.676Z,11.20
2022-10-22T21:11:16.723Z,11.10
2022-10-22T21:13:44.763Z,11.10
2022-10-22T21:16:14.673Z,11.10
2022-10-22T21:18:42.459Z,11.10
2022-10-22T21:21:11.588Z,11.10
2022-10-22T21:23:41.212Z,11.20
2022-10-22T21:26:09.090Z,11.20
2022-10-22T21:28:37.608Z,11.10
2022-10-22T21:31:07.138Z,11.10
2022-10-22T21:33:37.617Z,11.10
2022-10-22T21:36:06.799Z,11.10
2022-10-22T21:38:35.446Z,11.10
2022-10-22T21:41:07.097Z,11.10
2022-10-22T21:43:34.913Z,11.10
2022-10-22T21:46:08.224Z,11.10
2022-10-22T21:48:36.852Z,11.10
2022-10-22T21:51:08.275Z,11.20
2022-10-22T21:53:36.466Z,11.20
2022-10-22T21:56:05.835Z,11.10
2022-10-22T21:58:35.667Z,11.10
2022-10-22T22:01:04.162Z,11.10
2022-10-22T22:03:32.011Z,11.20
2022-10-22T22:06:00.646Z,11.10
2022-10-22T22:08:29.336Z,11.10
2022-10-22T22:11:02.474Z,11.10
2022-10-22T22:13:32.214Z,11.10
2022-10-22T22:16:04.139Z,11.10
2022-10-22T22:18:33.107Z,11.10
2022-10-22T22:21:03.811Z,11.00
2022-10-22T22:23:32.021Z,11.00
2022-10-22T22:26:00.679Z,10.90
2022-10-22T22:28:29.555Z,11.00
2022-10-22T22:30:58.867Z,10.90
2022-10-22T22:33:26.819Z,10.90
2022-10-22T22:35:59.413Z,10.80
2022-10-22T22:38:27.203Z,10.80
2022-10-22T22:40:54.938Z,10.80
2022-10-22T22:43:22.688Z,10.80
2022-10-22T22:45:59.839Z,10.80
2022-10-22T22:48:27.690Z,10.80
2022-10-22T22:50:55.506Z,10.80
2022-10-22T22:53:23.286Z,10.70
2022-10-22T22:55:51.069Z,10.70
2022-10-22T22:58:18.963Z,10.70
2022-10-22T23:00:46.719Z,10.70
2022-10-22T23:03:16.086Z,10.70
2022-10-22T23:05:43.832Z,10.70
2022-10-22T23:08:11.614Z,10.70
2022-10-22T23:10:39.379Z,10.70
2022-10-22T23:13:07.102Z,10.70
2022-10-22T23:15:34.891Z,10.70
2022-10-22T23:18:02.674Z,10.70
2022-10-22T23:20:31.795Z,10.60
2022-10-22T23:23:00.587Z,10.70
2022-10-22T23:25:28.353Z,10.70
2022-10-22T23:27:56.106Z,10.70
2022-10-22T23:30:23.866Z,10.70
2022-10-22T23:32:51.682Z,10.70
2022-10-22T23:35:19.660Z,10.70
2022-10-22T23:37:48.781Z,10.60
2022-10-22T23:40:16.715Z,10.60
2022-10-22T23:42:44.820Z,10.60
2022-10-22T23:45:12.585Z,10.60
2022-10-22T23:47:40.756Z,10.50
2022-10-22T23:50:09.391Z,10.50
2022-10-22T23:52:37.158Z,10.40
2022-10-22T23:55:07.452Z,10.40
2022-10-22T23:57:35.222Z,10.30
